Time;durP1;ratioP1;P1;durP2;ratioP2;P2;SDS_P1;SDS_P2;PMS_P1;PMS_P2;Temp;Humidity;BMP_temperature;BMP_pressure;BME280_temperature;BME280_humidity;BME280_pressure;Samples;Min_cycle;Max_cycle;Signal;HPM_P1;HPM_P2
2021/10/06 00:00:28;;;;;;;5.85;4.75;;;;;;;12.26;49.22;100574.16;5073740;28;20021;-74
2021/10/06 00:02:53;;;;;;;9.10;5.47;;;;;;;12.15;49.23;100552.47;5073624;28;20028;-75
2021/10/06 00:05:19;;;;;;;9.73;5.32;;;;;;;12.22;49.08;100574.63;5073694;28;20078;-76
2021/10/06 00:07:44;;;;;;;7.43;5.03;;;;;;;12.09;49.65;100559.22;5073524;28;20027;-76
2021/10/06 00:10:10;;;;;;;7.00;5.10;;;;;;;12.08;49.14;100566.34;5073816;28;20467;-75
2021/10/06 00:12:36;;;;;;;11.38;5.10;;;;;;;12.04;49.51;100567.66;5073713;28;20562;-75
2021/10/06 00:15:03;;;;;;;8.90;4.93;;;;;;;11.94;49.58;100561.69;5073725;28;20103;-76
2021/10/06 00:17:28;;;;;;;7.35;4.95;;;;;;;11.90;49.85;100576.22;5073902;28;20059;-76
2021/10/06 00:19:54;;;;;;;8.18;4.90;;;;;;;11.92;50.03;100582.19;5073804;28;20103;-76
2021/10/06 00:22:24;;;;;;;9.07;4.30;;;;;;;11.84;50.12;100582.13;5073452;28;20039;-75
2021/10/06 00:24:50;;;;;;;8.38;4.78;;;;;;;11.73;50.17;100580.59;5072044;28;20466;-76
2021/10/06 00:27:15;;;;;;;7.35;4.78;;;;;;;11.63;50.23;100558.72;5073324;28;20025;-76
2021/10/06 00:29:41;;;;;;;6.45;4.40;;;;;;;11.70;50.69;100569.50;5073319;28;20116;-76
2021/10/06 00:32:06;;;;;;;15.98;5.20;;;;;;;11.66;50.70;100562.88;5073374;28;20031;-75
2021/10/06 00:34:32;;;;;;;7.15;4.40;;;;;;;11.53;50.74;100543.97;5073417;28;20429;-75
2021/10/06 00:36:57;;;;;;;21.25;5.30;;;;;;;11.68;50.37;100563.53;5073213;28;20024;-76
2021/10/06 00:39:23;;;;;;;6.93;4.47;;;;;;;11.68;50.27;100574.13;5073283;28;20025;-75
2021/10/06 00:41:48;;;;;;;5.93;4.40;;;;;;;11.53;50.01;100550.09;5073203;28;20028;-76
2021/10/06 00:44:15;;;;;;;10.38;5.07;;;;;;;11.40;50.58;100526.75;5073243;28;20032;-76
2021/10/06 00:46:41;;;;;;;12.02;4.68;;;;;;;11.62;50.99;100558.88;5073231;28;20025;-75
2021/10/06 00:49:06;;;;;;;9.80;4.70;;;;;;;11.59;50.30;100552.09;5072307;28;20035;-75
2021/10/06 00:51:32;;;;;;;8.20;5.10;;;;;;;11.60;50.20;100553.75;5073000;28;20075;-76
2021/10/06 00:54:00;;;;;;;9.57;4.60;;;;;;;11.36;50.12;100519.28;5073194;28;20020;-75
2021/10/06 00:56:26;;;;;;;15.00;5.25;;;;;;;11.20;51.16;100504.19;5072855;28;20485;-75
2021/10/06 00:58:51;;;;;;;10.10;4.72;;;;;;;11.43;51.16;100555.50;5072809;28;20417;-75
2021/10/06 01:01:17;;;;;;;13.30;5.38;;;;;;;11.11;51.03;100491.88;5072804;28;20028;-76
2021/10/06 01:03:42;;;;;;;8.30;4.78;;;;;;;11.43;50.88;100576.66;5071549;28;20032;-75
2021/10/06 01:06:08;;;;;;;9.55;5.25;;;;;;;11.42;50.91;100550.38;5072504;28;20125;-75
2021/10/06 01:08:35;;;;;;;11.15;5.60;;;;;;;11.07;50.82;100493.19;5072768;28;20020;-76
2021/10/06 01:11:01;;;;;;;12.30;5.28;;;;;;;11.15;50.58;100498.53;5072607;28;20103;-76
2021/10/06 01:13:27;;;;;;;8.70;4.78;;;;;;;11.40;50.71;100542.59;5088127;28;20111;-76
2021/10/06 01:15:53;;;;;;;8.05;5.05;;;;;;;11.37;50.96;100548.19;5072668;28;20043;-76
2021/10/06 01:18:18;;;;;;;8.93;4.78;;;;;;;11.36;51.16;100545.72;5072677;28;20028;-75
2021/10/06 01:20:44;;;;;;;8.38;4.93;;;;;;;11.37;51.10;100550.03;5072494;28;20111;-75
2021/10/06 01:23:09;;;;;;;8.52;4.65;;;;;;;11.09;50.96;100501.78;5072496;28;20095;-76
2021/10/06 01:25:35;;;;;;;10.35;4.95;;;;;;;11.45;50.95;100548.25;5072325;28;20394;-76
2021/10/06 01:28:01;;;;;;;6.53;4.63;;;;;;;11.30;50.91;100518.09;5072255;28;20025;-75
2021/10/06 01:30:27;;;;;;;11.27;4.85;;;;;;;11.49;50.75;100547.91;5072287;28;20117;-75
2021/10/06 01:32:52;;;;;;;10.50;5.22;;;;;;;11.38;50.88;100531.34;5072292;28;20493;-76
2021/10/06 01:35:18;;;;;;;10.15;4.72;;;;;;;11.47;51.10;100548.06;5071898;28;20036;-75
2021/10/06 01:37:44;;;;;;;8.85;5.03;;;;;;;11.40;50.77;100545.25;5072109;28;20032;-76
2021/10/06 01:40:13;;;;;;;9.85;5.75;;;;;;;10.78;50.76;100436.25;5071951;28;20032;-76
2021/10/06 01:42:39;;;;;;;11.95;5.03;;;;;;;11.22;50.99;100502.19;5071948;28;20062;-76
2021/10/06 01:45:06;;;;;;;8.05;4.70;;;;;;;11.34;51.59;100524.72;5071967;28;20028;-76
2021/10/06 01:47:32;;;;;;;11.50;5.18;;;;;;;11.42;51.51;100542.44;5071730;28;20099;-76
2021/10/06 01:49:57;;;;;;;8.35;4.63;;;;;;;11.36;51.85;100533.31;5071757;28;20103;-76
2021/10/06 01:52:23;;;;;;;7.70;5.07;;;;;;;11.30;51.12;100515.47;5071963;28;20103;-76
2021/10/06 01:54:50;;;;;;;7.18;4.57;;;;;;;11.45;51.36;100528.91;5071897;28;20507;-76
2021/10/06 01:57:16;;;;;;;8.60;4.75;;;;;;;11.50;51.43;100520.50;5071704;28;20028;-76
2021/10/06 01:59:45;;;;;;;7.15;4.65;;;;;;;11.60;51.38;100523.81;5070902;28;20554;-76
2021/10/06 02:02:15;;;;;;;8.77;5.00;;;;;;;11.52;51.12;100513.22;5071820;28;20421;-76
2021/10/06 02:04:41;;;;;;;7.93;5.18;;;;;;;11.35;51.29;100484.06;5071916;28;20025;-76
2021/10/06 02:07:07;;;;;;;9.60;4.80;;;;;;;11.57;51.89;100521.50;5071667;28;20408;-76
2021/10/06 02:09:32;;;;;;;9.38;4.75;;;;;;;11.46;51.23;100501.47;5070284;28;20020;-76
2021/10/06 02:11:58;;;;;;;6.90;4.93;;;;;;;11.46;51.86;100489.06;5071691;28;20031;-76
2021/10/06 02:14:23;;;;;;;7.82;5.18;;;;;;;11.62;51.63;100517.38;5071790;28;20025;-76
2021/10/06 02:16:49;;;;;;;11.50;4.85;;;;;;;11.46;51.89;100488.25;5071470;28;20394;-76
2021/10/06 02:19:14;;;;;;;12.95;5.68;;;;;;;11.10;51.99;100453.22;5071250;28;20103;-76
2021/10/06 02:21:40;;;;;;;9.02;5.93;;;;;;;11.32;51.97;100497.63;5071559;28;20416;-76
2021/10/06 02:24:06;;;;;;;12.60;5.82;;;;;;;11.47;51.84;100550.72;5071688;28;20024;-81
2021/10/06 02:26:34;;;;;;;8.52;4.80;;;;;;;10.25;52.30;100327.34;5071348;28;20099;-81
2021/10/06 02:28:59;;;;;;;11.02;5.40;;;;;;;11.26;51.72;100482.41;5071391;28;20020;-81
2021/10/06 02:31:25;;;;;;;9.63;6.05;;;;;;;11.46;52.11;100510.22;5071170;28;20094;-81
2021/10/06 02:33:50;;;;;;;8.18;5.43;;;;;;;11.49;52.29;100540.81;5071015;28;20025;-81
2021/10/06 02:36:15;;;;;;;11.52;5.43;;;;;;;11.29;51.69;100492.66;5071088;28;20028;-81
2021/10/06 02:38:41;;;;;;;11.70;5.68;;;;;;;10.49;51.96;100372.38;5071193;28;20029;-81
2021/10/06 02:41:06;;;;;;;10.32;5.60;;;;;;;10.75;52.53;100415.44;5069905;28;20093;-81
2021/10/06 02:43:32;;;;;;;11.77;6.28;;;;;;;10.96;52.59;100459.94;5071151;28;20039;-81
2021/10/06 02:45:57;;;;;;;10.38;6.78;;;;;;;11.30;52.30;100536.59;5071178;28;20052;-81
2021/10/06 02:48:23;;;;;;;9.02;5.45;;;;;;;11.11;52.98;100492.72;5070678;28;20013;-81
2021/10/06 02:50:50;;;;;;;10.25;5.80;;;;;;;11.20;52.70;100513.94;5070876;28;20028;-81
2021/10/06 02:53:15;;;;;;;9.98;6.20;;;;;;;11.16;52.67;100512.59;5070891;28;20017;-80
2021/10/06 02:55:41;;;;;;;7.72;5.78;;;;;;;10.79;52.78;100450.28;5070962;28;20020;-81
2021/10/06 02:58:06;;;;;;;9.35;5.45;;;;;;;10.47;52.84;100413.94;5070779;28;20082;-81
2021/10/06 03:00:32;;;;;;;8.68;5.95;;;;;;;10.35;52.71;100394.88;5070906;28;20107;-80
2021/10/06 03:02:57;;;;;;;8.68;5.85;;;;;;;10.50;52.88;100422.38;5070738;28;20021;-81
2021/10/06 03:05:22;;;;;;;10.55;5.65;;;;;;;11.02;52.79;100519.25;5070923;28;20025;-81
2021/10/06 03:07:48;;;;;;;13.55;5.97;;;;;;;10.99;52.75;100520.41;5086638;28;20103;-81
2021/10/06 03:10:14;;;;;;;9.32;6.00;;;;;;;10.56;53.27;100449.16;5070940;28;20028;-81
2021/10/06 03:12:40;;;;;;;9.98;5.55;;;;;;;10.81;53.37;100509.91;5090448;28;20017;-81
2021/10/06 03:15:08;;;;;;;11.20;6.25;;;;;;;11.05;53.42;100524.22;5074898;28;20151;-81
2021/10/06 03:17:33;;;;;;;10.50;5.97;;;;;;;10.57;53.65;100470.13;5074805;28;20025;-80
2021/10/06 03:19:59;;;;;;;9.20;6.50;;;;;;;9.90;53.34;100379.19;5074985;28;20027;-80
2021/10/06 03:22:25;;;;;;;9.20;6.28;;;;;;;10.40;53.71;100461.25;5074684;28;20025;-80
2021/10/06 03:24:50;;;;;;;11.02;5.93;;;;;;;10.76;53.51;100528.03;5074665;28;20504;-76
2021/10/06 03:27:16;;;;;;;9.95;6.53;;;;;;;10.03;53.98;100413.91;5075152;28;20028;-76
2021/10/06 03:29:43;;;;;;;9.48;6.90;;;;;;;10.71;53.97;100514.44;5074642;28;20024;-76
2021/10/06 03:32:09;;;;;;;8.55;6.75;;;;;;;10.61;53.85;100505.81;5074402;28;20035;-76
2021/10/06 03:34:34;;;;;;;10.23;7.15;;;;;;;10.67;54.06;100528.13;5074328;28;20029;-76
2021/10/06 03:36:59;;;;;;;12.18;6.60;;;;;;;10.30;54.04;100465.78;5074245;28;20028;-76
2021/10/06 03:39:25;;;;;;;15.32;6.85;;;;;;;10.43;53.38;100483.88;5074140;28;20027;-76
2021/10/06 03:41:50;;;;;;;9.73;6.38;;;;;;;10.64;54.13;100518.69;5074184;28;20044;-76
2021/10/06 03:44:16;;;;;;;8.73;6.53;;;;;;;10.67;53.90;100528.13;5074155;28;20040;-76
2021/10/06 03:46:41;;;;;;;14.32;7.50;;;;;;;10.63;54.33;100527.59;5073993;28;20024;-76
2021/10/06 03:49:07;;;;;;;13.68;7.75;;;;;;;10.26;54.55;100477.63;5073981;28;20095;-76
2021/10/06 03:51:32;;;;;;;13.90;7.10;;;;;;;10.56;54.68;100516.00;5074206;28;20562;-76
2021/10/06 03:53:57;;;;;;;13.70;7.45;;;;;;;10.68;54.04;100530.59;5074318;28;20458;-76
2021/10/06 03:56:24;;;;;;;10.40;7.57;;;;;;;10.71;54.09;100525.00;5073954;28;20032;-76
2021/10/06 03:58:50;;;;;;;12.63;7.65;;;;;;;10.77;54.02;100526.22;5073754;28;20020;-77
2021/10/06 04:01:15;;;;;;;9.52;6.93;;;;;;;10.74;54.45;100521.25;5073584;28;20032;-76
2021/10/06 04:03:40;;;;;;;11.25;6.63;;;;;;;10.85;54.02;100536.00;5073685;28;20073;-76
2021/10/06 04:06:06;;;;;;;11.00;7.07;;;;;;;10.83;53.92;100534.34;5073899;28;20020;-76
2021/10/06 04:08:31;;;;;;;11.10;7.13;;;;;;;10.72;54.03;100512.63;5074042;28;20016;-76
2021/10/06 04:10:57;;;;;;;9.57;7.13;;;;;;;10.57;54.30;100487.78;5073861;28;20043;-77
2021/10/06 04:13:22;;;;;;;10.93;7.07;;;;;;;10.63;54.51;100495.91;5073782;28;20025;-76
2021/10/06 04:15:48;;;;;;;9.93;6.70;;;;;;;10.76;54.51;100528.03;5073722;28;20050;-76
2021/10/06 04:18:13;;;;;;;10.20;7.55;;;;;;;10.81;54.43;100531.03;5073615;28;20412;-76
2021/10/06 04:20:39;;;;;;;15.45;8.18;;;;;;;10.83;54.18;100529.06;5072359;28;20025;-76
2021/10/06 04:23:05;;;;;;;19.23;9.10;;;;;;;10.84;54.39;100521.97;5072458;28;20020;-76
2021/10/06 04:25:31;;;;;;;14.52;8.93;;;;;;;10.79;54.35;100517.16;5073490;28;20028;-76
2021/10/06 04:27:56;;;;;;;14.20;8.52;;;;;;;10.49;54.05;100462.97;5073366;28;20017;-76
2021/10/06 04:30:22;;;;;;;13.35;9.27;;;;;;;10.67;54.21;100497.25;5072070;28;20020;-76
2021/10/06 04:32:47;;;;;;;13.57;9.68;;;;;;;10.72;54.14;100494.97;5073660;28;20067;-76
2021/10/06 04:35:13;;;;;;;12.98;9.27;;;;;;;10.60;54.44;100477.72;5073376;28;20507;-77
2021/10/06 04:37:38;;;;;;;13.48;9.75;;;;;;;10.60;54.45;100479.53;5073328;28;20032;-76
2021/10/06 04:40:05;;;;;;;14.65;10.10;;;;;;;10.73;54.21;100494.00;5073358;28;20078;-76
2021/10/06 04:42:30;;;;;;;17.70;10.75;;;;;;;10.71;54.19;100480.13;5073047;28;20421;-76
2021/10/06 04:44:56;;;;;;;18.55;10.20;;;;;;;10.78;53.91;100480.31;5073093;28;20025;-76
2021/10/06 04:47:21;;;;;;;16.77;10.98;;;;;;;10.75;53.67;100492.03;5073204;28;20019;-76
2021/10/06 04:49:47;;;;;;;15.10;10.32;;;;;;;10.83;53.66;100494.72;5073117;28;20024;-76
2021/10/06 04:52:12;;;;;;;20.98;12.30;;;;;;;10.88;53.43;100496.06;5088623;28;20016;-76
2021/10/06 04:54:38;;;;;;;21.85;12.85;;;;;;;10.75;53.34;100470.06;5072969;28;20025;-76
2021/10/06 04:57:03;;;;;;;19.38;12.98;;;;;;;10.57;53.68;100450.81;5073058;28;20017;-76
2021/10/06 04:59:29;;;;;;;16.73;11.50;;;;;;;10.43;53.68;100429.28;5072765;28;20025;-76
2021/10/06 05:01:55;;;;;;;14.95;12.10;;;;;;;10.42;53.64;100422.34;5072838;28;20481;-77
2021/10/06 05:04:21;;;;;;;19.73;11.48;;;;;;;10.97;53.30;100510.97;5072761;28;20017;-76
2021/10/06 05:06:46;;;;;;;16.27;11.32;;;;;;;10.95;53.59;100508.47;5072929;28;20027;-76
2021/10/06 05:09:12;;;;;;;19.52;11.00;;;;;;;10.96;53.39;100518.06;5072857;28;20099;-76
2021/10/06 05:11:37;;;;;;;15.82;10.57;;;;;;;10.19;53.60;100395.56;5072607;28;20086;-77
2021/10/06 05:14:02;;;;;;;15.82;9.85;;;;;;;10.87;53.43;100516.38;5072424;28;20025;-76
2021/10/06 05:16:28;;;;;;;18.23;11.43;;;;;;;10.97;53.64;100540.03;5072337;28;20412;-76
2021/10/06 05:18:53;;;;;;;16.60;12.90;;;;;;;10.93;53.70;100536.88;5072105;28;20587;-77
2021/10/06 05:21:19;;;;;;;24.63;14.25;;;;;;;10.75;53.85;100514.97;5072183;28;20020;-76
2021/10/06 05:23:44;;;;;;;21.10;13.82;;;;;;;10.87;53.96;100529.56;5072382;28;20099;-76
2021/10/06 05:26:09;;;;;;;18.90;12.05;;;;;;;10.78;53.48;100514.66;5072206;28;20029;-76
2021/10/06 05:28:35;;;;;;;18.63;9.85;;;;;;;10.89;53.55;100527.59;5072266;28;20514;-76
2021/10/06 05:31:01;;;;;;;16.27;10.23;;;;;;;11.02;53.53;100548.31;5072216;28;20021;-76
2021/10/06 05:33:27;;;;;;;14.10;8.98;;;;;;;11.04;53.70;100533.97;5070105;28;20107;-76
2021/10/06 05:35:52;;;;;;;18.35;10.07;;;;;;;11.05;53.72;100524.22;5087314;28;20029;-75
2021/10/06 05:38:17;;;;;;;23.45;11.13;;;;;;;11.18;53.67;100540.50;5071687;28;20032;-75
2021/10/06 05:40:43;;;;;;;14.55;9.85;;;;;;;11.28;53.28;100530.66;5071724;28;20029;-75
2021/10/06 05:43:12;;;;;;;18.33;9.48;;;;;;;11.38;52.89;100534.00;5071669;28;20016;-76
2021/10/06 05:45:38;;;;;;;16.05;9.80;;;;;;;11.50;52.96;100537.19;5071641;28;20078;-75
2021/10/06 05:48:04;;;;;;;23.42;9.80;;;;;;;11.52;53.57;100515.88;5071729;28;20073;-76
2021/10/06 05:50:30;;;;;;;13.63;9.30;;;;;;;11.70;52.92;100543.03;5070320;28;20454;-76
2021/10/06 05:53:00;;;;;;;13.60;9.20;;;;;;;11.45;52.67;100484.78;5071879;28;20032;-75
2021/10/06 05:55:25;;;;;;;13.50;9.82;;;;;;;11.87;53.32;100531.53;5071451;28;20013;-76
2021/10/06 05:57:50;;;;;;;16.30;9.68;;;;;;;11.94;52.44;100529.94;5071247;28;20025;-76
2021/10/06 06:00:16;;;;;;;14.02;9.13;;;;;;;12.08;52.83;100529.28;5071332;28;20024;-76
2021/10/06 06:02:44;;;;;;;15.80;9.27;;;;;;;11.42;52.78;100410.22;5054809;28;20036;-76
2021/10/06 06:05:09;;;;;;;16.50;8.93;;;;;;;12.22;52.93;100551.63;5057938;28;20078;-75
2021/10/06 06:07:35;;;;;;;13.32;8.05;;;;;;;12.30;52.70;100521.69;5062707;28;20048;-74
2021/10/06 06:10:00;;;;;;;12.48;9.15;;;;;;;11.81;53.27;100442.22;5051119;28;20459;-75
2021/10/06 06:12:26;;;;;;;19.70;10.88;;;;;;;11.76;53.06;100426.81;5059909;28;20028;-75
2021/10/06 06:14:51;;;;;;;17.75;9.35;;;;;;;12.08;53.08;100455.16;5071407;28;20017;-75
2021/10/06 06:17:17;;;;;;;18.35;10.60;;;;;;;12.39;53.22;100499.50;5071196;28;20535;-75
2021/10/06 06:19:42;;;;;;;16.20;8.70;;;;;;;12.71;52.56;100523.34;5071165;28;20028;-75
2021/10/06 06:22:08;;;;;;;16.38;10.15;;;;;;;12.48;53.34;100468.53;5071126;28;20037;-75
2021/10/06 06:24:33;;;;;;;16.45;9.38;;;;;;;12.85;53.11;100500.63;5068316;28;20020;-76
2021/10/06 06:26:59;;;;;;;11.93;9.27;;;;;;;13.07;53.16;100508.84;5070705;28;20099;-75
2021/10/06 06:29:24;;;;;;;15.02;11.23;;;;;;;13.17;53.12;100513.00;5070951;28;20404;-75
2021/10/06 06:31:50;;;;;;;23.05;9.77;;;;;;;13.10;52.70;100479.34;5070816;28;20028;-75
2021/10/06 06:34:15;;;;;;;17.10;10.50;;;;;;;13.36;53.13;100525.84;5070919;28;20029;-74
2021/10/06 06:36:41;;;;;;;12.38;9.02;;;;;;;13.22;53.16;100478.84;5070690;28;20400;-75
2021/10/06 06:39:07;;;;;;;14.95;9.88;;;;;;;12.84;52.84;100398.25;5070881;28;20020;-75
2021/10/06 06:41:32;;;;;;;14.32;9.48;;;;;;;13.45;52.77;100488.69;5070715;28;20513;-75
2021/10/06 06:44:00;;;;;;;13.18;9.43;;;;;;;13.44;53.14;100471.97;5070728;28;20104;-75
2021/10/06 06:46:25;;;;;;;13.15;10.18;;;;;;;13.78;52.99;100527.31;5068973;28;20387;-75
2021/10/06 06:48:51;;;;;;;14.15;9.48;;;;;;;13.70;52.62;100498.19;5066415;28;20027;-75
2021/10/06 06:51:16;;;;;;;12.38;9.30;;;;;;;13.76;52.72;100501.97;5077104;28;20062;-75
2021/10/06 06:53:42;;;;;;;18.08;10.43;;;;;;;14.03;52.50;100522.69;5065612;28;20033;-75
2021/10/06 06:56:07;;;;;;;16.30;10.25;;;;;;;13.55;52.74;100430.94;5057379;28;20084;-76
2021/10/06 06:58:32;;;;;;;16.35;9.27;;;;;;;13.92;52.02;100478.78;5057312;28;20040;-75
2021/10/06 07:00:58;;;;;;;19.83;15.45;;;;;;;14.24;52.22;100520.25;5057408;28;20513;-75
2021/10/06 07:03:23;;;;;;;13.80;11.57;;;;;;;14.35;52.11;100542.91;5057264;28;20567;-76
2021/10/06 07:05:49;;;;;;;18.02;11.10;;;;;;;14.36;52.20;100501.22;5056774;28;20486;-75
2021/10/06 07:08:14;;;;;;;16.92;11.30;;;;;;;13.39;52.23;100344.34;5056933;28;20025;-76
2021/10/06 07:10:40;;;;;;;16.40;10.07;;;;;;;14.58;52.04;100524.31;5055767;28;20025;-75
2021/10/06 07:13:06;;;;;;;13.25;10.15;;;;;;;14.55;51.84;100506.06;5063865;28;20089;-75
2021/10/06 07:15:31;;;;;;;15.48;10.52;;;;;;;14.74;51.64;100533.97;5076910;28;20024;-76
2021/10/06 07:17:58;;;;;;;16.88;10.00;;;;;;;13.71;51.34;100334.47;5077219;28;20477;-76
2021/10/06 07:20:24;;;;;;;17.75;10.30;;;;;;;14.90;51.40;100520.53;5077475;28;20390;-75
2021/10/06 07:22:49;;;;;;;20.85;10.80;;;;;;;14.66;51.26;100473.72;5067218;28;20074;-75
2021/10/06 07:25:17;;;;;;;14.80;8.00;;;;;;;14.26;50.89;100392.56;5061265;28;20405;-76
2021/10/06 07:27:42;;;;;;;14.13;7.43;;;;;;;15.05;50.93;100512.56;5074827;28;20030;-75
2021/10/06 07:30:08;;;;;;;14.65;8.50;;;;;;;15.03;50.86;100504.78;5070577;28;20028;-74
2021/10/06 07:32:34;;;;;;;14.88;6.97;;;;;;;15.19;50.88;100512.56;5059853;28;20047;-75
2021/10/06 07:35:00;;;;;;;12.23;7.00;;;;;;;15.01;50.64;100476.72;5064616;28;20500;-74
2021/10/06 07:37:25;;;;;;;11.63;7.22;;;;;;;15.31;50.43;100512.09;5056854;28;20083;-75
2021/10/06 07:39:51;;;;;;;13.23;7.80;;;;;;;14.80;50.43;100417.09;5067773;28;20195;-75
2021/10/06 07:42:17;;;;;;;14.35;6.60;;;;;;;15.27;50.52;100477.88;5070519;28;20031;-76
2021/10/06 07:44:44;;;;;;;13.05;6.53;;;;;;;15.54;50.38;100507.47;5068506;28;20115;-75
2021/10/06 07:47:09;;;;;;;9.88;6.93;;;;;;;15.58;50.15;100508.78;5063645;28;20408;-75
2021/10/06 07:49:35;;;;;;;10.02;5.95;;;;;;;15.11;50.15;100419.56;5069004;28;20021;-75
2021/10/06 07:52:00;;;;;;;16.60;8.65;;;;;;;15.53;50.35;100466.72;5070027;28;20402;-75
2021/10/06 07:54:26;;;;;;;11.05;6.95;;;;;;;15.80;49.81;100529.13;5070287;28;20031;-75
2021/10/06 07:56:52;;;;;;;15.20;6.13;;;;;;;15.64;50.05;100460.13;5069556;28;20037;-75
2021/10/06 07:59:17;;;;;;;13.43;9.18;;;;;;;15.82;50.13;100491.66;5069098;28;20039;-76
2021/10/06 08:01:43;;;;;;;9.75;6.15;;;;;;;15.91;50.03;100487.88;5064753;28;20032;-74
2021/10/06 08:04:09;;;;;;;10.68;8.90;;;;;;;15.49;49.46;100400.75;5051399;28;20369;-75
2021/10/06 08:06:34;;;;;;;8.57;5.88;;;;;;;16.06;49.44;100472.66;5053539;28;20031;-75
2021/10/06 08:09:00;;;;;;;10.70;6.75;;;;;;;16.25;49.04;100481.00;5068386;28;20417;-75
2021/10/06 08:11:25;;;;;;;9.98;6.13;;;;;;;16.27;48.55;100468.31;5070645;28;20016;-76
2021/10/06 08:13:51;;;;;;;9.25;5.40;;;;;;;16.40;48.71;100484.44;5061871;28;20563;-75
2021/10/06 08:16:16;;;;;;;8.93;5.60;;;;;;;16.15;48.28;100425.38;5073046;28;20456;-75
2021/10/06 08:18:41;;;;;;;12.23;5.53;;;;;;;16.46;48.35;100479.16;5062190;28;20439;-76
2021/10/06 08:21:07;;;;;;;6.28;4.57;;;;;;;16.01;48.02;100391.66;5071598;28;20028;-75
2021/10/06 08:23:32;;;;;;;14.85;4.90;;;;;;;16.05;47.92;100390.25;5068808;28;20025;-75
2021/10/06 08:25:59;;;;;;;6.70;3.75;;;;;;;16.63;47.54;100460.22;5069155;28;20020;-76
2021/10/06 08:28:24;;;;;;;6.95;4.93;;;;;;;16.64;47.58;100459.19;5064516;28;20020;-76
2021/10/06 08:30:49;;;;;;;9.63;5.03;;;;;;;16.72;47.36;100456.41;5080122;28;20413;-76
2021/10/06 08:33:15;;;;;;;8.93;4.80;;;;;;;16.92;47.13;100467.19;5066837;28;20023;-76
2021/10/06 08:35:41;;;;;;;9.63;4.05;;;;;;;16.99;46.57;100462.72;5066869;28;20493;-75
2021/10/06 08:38:08;;;;;;;7.57;4.88;;;;;;;17.01;46.25;100445.47;5072298;28;20050;-76
2021/10/06 08:40:35;;;;;;;7.93;4.13;;;;;;;16.75;46.28;100400.81;5072664;28;20028;-75
2021/10/06 08:43:02;;;;;;;7.25;4.65;;;;;;;17.13;46.22;100457.28;5070962;28;20174;-75
2021/10/06 08:45:27;;;;;;;6.50;4.43;;;;;;;16.13;45.67;100284.38;5062614;28;20017;-76
2021/10/06 08:47:53;;;;;;;5.25;3.65;;;;;;;17.14;45.22;100418.88;5070310;28;20019;-75
2021/10/06 08:50:19;;;;;;;6.25;3.72;;;;;;;17.49;44.92;100458.84;5072650;28;20111;-76
2021/10/06 08:52:49;;;;;;;7.28;4.18;;;;;;;17.59;44.51;100453.13;5072333;28;20112;-75
2021/10/06 08:55:17;;;;;;;9.30;3.63;;;;;;;17.69;44.41;100469.63;5061013;28;20112;-75
2021/10/06 08:57:42;;;;;;;7.05;4.35;;;;;;;17.75;44.31;100452.78;5056002;28;20039;-75
2021/10/06 09:00:09;;;;;;;11.52;7.32;;;;;;;17.07;44.23;100334.47;5073213;28;20493;-75
2021/10/06 09:02:40;;;;;;;10.73;7.18;;;;;;;17.33;43.57;100363.94;5072135;28;20468;-75
2021/10/06 09:05:07;;;;;;;7.18;4.20;;;;;;;17.44;43.81;100390.03;5068415;28;20017;-74
2021/10/06 09:07:52;;;;;;;8.77;4.65;;;;;;;17.87;43.66;100442.34;5072268;28;20094;-75
2021/10/06 09:10:18;;;;;;;10.93;7.85;;;;;;;17.93;43.67;100444.19;5071519;28;20017;-75
2021/10/06 09:13:04;;;;;;;18.70;13.07;;;;;;;17.94;43.37;100440.50;5072191;28;20561;-76
2021/10/06 09:15:45;;;;;;;9.63;6.20;;;;;;;18.00;43.21;100445.84;5072175;28;20016;-76
2021/10/06 09:18:17;;;;;;;10.98;9.55;;;;;;;17.89;42.83;100382.34;5072041;28;20035;-76
2021/10/06 09:20:43;;;;;;;8.02;4.07;;;;;;;18.37;42.29;100440.91;5071295;28;20028;-76
2021/10/06 09:23:11;;;;;;;7.38;4.70;;;;;;;18.51;41.97;100441.72;5052114;28;20025;-75
2021/10/06 09:25:51;;;;;;;5.18;3.75;;;;;;;18.66;41.25;100450.41;5071317;28;20496;-76
2021/10/06 09:28:38;;;;;;;7.93;6.10;;;;;;;18.67;41.69;100447.53;5067696;28;20059;-76
2021/10/06 09:31:10;;;;;;;8.30;6.10;;;;;;;18.36;41.21;100351.88;5071496;28;20026;-73
2021/10/06 09:33:48;;;;;;;10.18;6.57;;;;;;;19.14;40.40;100432.16;5064013;28;20024;-75
2021/10/06 09:36:14;;;;;;;17.50;12.05;;;;;;;19.27;40.70;100431.28;5071932;28;20496;-75
2021/10/06 09:38:45;;;;;;;6.97;3.72;;;;;;;19.10;40.22;100427.44;5070796;28;20029;-75
2021/10/06 09:41:47;;;;;;;8.65;4.32;;;;;;;18.81;40.98;100429.59;5071695;28;20103;-76
2021/10/06 09:44:20;;;;;;;6.47;5.65;;;;;;;18.71;41.18;100429.19;5060431;28;20473;-75
2021/10/06 09:46:49;;;;;;;12.15;6.13;;;;;;;18.67;41.27;100430.66;5071888;28;20020;-75
2021/10/06 09:49:32;;;;;;;10.60;7.15;;;;;;;18.65;41.38;100428.19;5071623;28;20413;-75
2021/10/06 09:52:25;;;;;;;7.28;4.20;;;;;;;18.64;41.15;100428.41;5071387;28;20029;-76
2021/10/06 09:55:04;;;;;;;6.80;4.55;;;;;;;18.60;40.93;100429.81;5068272;28;20497;-75
2021/10/06 09:57:33;;;;;;;5.40;3.38;;;;;;;18.55;40.86;100418.88;5051113;28;20108;-76
2021/10/06 10:00:04;;;;;;;9.30;5.63;;;;;;;18.25;40.91;100376.56;5051422;28;20032;-76
2021/10/06 10:02:30;;;;;;;4.85;3.88;;;;;;;18.79;40.12;100412.09;5051673;28;20029;-73
2021/10/06 10:04:57;;;;;;;4.70;3.63;;;;;;;19.40;39.27;100425.06;5065128;28;20024;-76
2021/10/06 10:07:23;;;;;;;7.10;4.30;;;;;;;19.93;38.46;100423.72;5070165;28;20452;-77
2021/10/06 10:09:51;;;;;;;5.95;3.25;;;;;;;20.10;37.97;100407.13;5065879;28;20063;-76
2021/10/06 10:12:21;;;;;;;12.30;11.00;;;;;;;20.53;37.19;100426.75;5062810;28;20077;-75
2021/10/06 10:14:47;;;;;;;10.98;8.85;;;;;;;20.96;36.68;100409.81;5072560;28;20028;-76
2021/10/06 10:17:13;;;;;;;8.82;7.13;;;;;;;21.11;35.95;100379.88;5062850;28;20531;-75
2021/10/06 10:19:39;;;;;;;6.57;4.85;;;;;;;21.48;35.78;100404.81;5056464;28;20025;-76
2021/10/06 10:22:06;;;;;;;6.03;3.47;;;;;;;20.63;35.42;100252.66;5061609;28;20024;-75
2021/10/06 10:24:43;;;;;;;8.10;4.10;;;;;;;21.51;35.31;100397.13;5071115;28;20054;-80
2021/10/06 10:27:10;;;;;;;4.35;3.58;;;;;;;21.67;35.19;100392.16;5070844;28;20032;-80
2021/10/06 10:29:50;;;;;;;5.03;3.30;;;;;;;21.76;35.00;100398.84;5070258;28;20023;-80
2021/10/06 10:32:25;;;;;;;6.05;3.55;;;;;;;21.87;34.24;100390.00;5070865;28;20017;-80
2021/10/06 10:34:59;;;;;;;4.07;2.83;;;;;;;22.09;34.27;100385.72;5070569;28;20024;-80
2021/10/06 10:37:45;;;;;;;7.90;4.50;;;;;;;22.39;33.93;100377.56;5070557;28;20028;-80
2021/10/06 10:40:29;;;;;;;3.67;3.15;;;;;;;22.54;33.34;100385.16;5070718;28;20420;-80
2021/10/06 10:42:57;;;;;;;5.75;3.25;;;;;;;22.26;33.60;100328.53;5070357;28;20025;-79
2021/10/06 10:45:37;;;;;;;5.82;2.80;;;;;;;22.74;32.50;100377.50;5065238;28;20028;-80
2021/10/06 10:48:07;;;;;;;8.70;5.18;;;;;;;22.97;32.67;100375.84;5048937;28;20417;-80
2021/10/06 10:50:57;;;;;;;8.27;3.10;;;;;;;22.79;32.56;100369.53;5048217;28;20507;-80
2021/10/06 10:53:51;;;;;;;5.05;3.20;;;;;;;22.90;32.13;100375.97;5052166;28;20029;-80
2021/10/06 10:56:38;;;;;;;6.93;3.08;;;;;;;22.81;32.65;100370.16;5070328;28;20047;-80
2021/10/06 10:59:09;;;;;;;5.20;2.50;;;;;;;22.49;33.20;100372.41;5070615;28;20025;-80
2021/10/06 11:01:46;;;;;;;10.50;3.75;;;;;;;22.09;33.92;100364.22;5070308;28;20123;-80
2021/10/06 11:04:12;;;;;;;7.03;3.25;;;;;;;21.61;34.33;100363.53;5070351;28;20024;-80
2021/10/06 11:06:40;;;;;;;5.55;3.33;;;;;;;21.27;35.08;100373.91;5070416;28;20082;-80
2021/10/06 11:09:31;;;;;;;11.95;7.18;;;;;;;20.68;35.14;100312.88;5070496;28;20413;-80
2021/10/06 11:12:06;;;;;;;6.60;3.13;;;;;;;20.62;35.68;100358.34;5058598;28;20428;-80
2021/10/06 11:14:33;;;;;;;6.75;5.22;;;;;;;20.05;36.04;100303.19;5070401;28;20020;-80
2021/10/06 11:17:07;;;;;;;5.22;3.85;;;;;;;20.48;36.18;100350.66;5070372;28;20052;-80
2021/10/06 11:19:40;;;;;;;5.88;3.40;;;;;;;20.86;35.47;100342.41;5057007;28;20063;-80